createdAt,value
2018-05-10T00:04:34.723Z,100373.81
2018-05-10T00:09:37.360Z,100378.87
2018-05-10T00:14:39.871Z,100375.98
2018-05-10T00:19:42.352Z,100365.85
2018-05-10T00:24:44.837Z,100353.87
2018-05-10T00:29:47.311Z,100355.00
2018-05-10T00:34:49.775Z,100353.30
2018-05-10T00:39:52.255Z,100359.31
2018-05-10T00:44:54.713Z,100361.34
2018-05-10T00:49:57.306Z,100360.48
2018-05-10T00:54:59.854Z,100365.74
2018-05-10T01:00:02.485Z,100356.30
2018-05-10T01:05:05.114Z,100358.04
2018-05-10T01:10:08.424Z,100351.98
2018-05-10T01:15:10.906Z,100355.94
2018-05-10T01:20:13.384Z,100345.44
2018-05-10T01:25:15.875Z,100341.10
2018-05-10T01:30:18.351Z,100341.68
2018-05-10T01:35:32.653Z,100341.79
2018-05-10T01:40:35.174Z,100340.56
2018-05-10T01:45:37.768Z,100340.84
2018-05-10T01:50:40.341Z,100344.22
2018-05-10T01:55:42.873Z,100343.87
2018-05-10T02:00:45.366Z,100343.08
2018-05-10T02:05:47.833Z,100337.38
2018-05-10T02:10:50.406Z,100340.98
2018-05-10T02:15:52.874Z,100339.79
2018-05-10T02:20:55.385Z,100337.50
2018-05-10T02:25:58.053Z,100344.64
2018-05-10T02:31:00.602Z,100355.67
2018-05-10T02:36:03.182Z,100362.91
2018-05-10T02:41:05.761Z,100362.39
2018-05-10T02:46:08.272Z,100352.87
2018-05-10T02:51:10.779Z,100355.48
2018-05-10T02:56:13.293Z,100360.21
2018-05-10T03:01:15.808Z,100362.98
2018-05-10T03:06:18.301Z,100359.45
2018-05-10T03:11:20.762Z,100362.09
2018-05-10T03:16:23.231Z,100347.88
2018-05-10T03:21:25.687Z,100356.75
2018-05-10T03:26:28.173Z,100354.77
2018-05-10T03:31:30.701Z,100353.48
2018-05-10T03:36:33.353Z,100354.38
2018-05-10T03:41:36.222Z,100346.17
2018-05-10T03:46:38.770Z,100348.19
2018-05-10T03:51:41.256Z,100349.91
2018-05-10T03:56:44.704Z,100350.99
2018-05-10T04:01:47.151Z,100347.59
2018-05-10T04:07:01.360Z,100352.06
2018-05-10T04:12:04.037Z,100345.48
2018-05-10T04:17:07.234Z,100347.83
2018-05-10T04:22:09.698Z,100350.20
2018-05-10T04:27:12.213Z,100346.70
2018-05-10T04:32:14.703Z,100343.55
2018-05-10T04:37:17.209Z,100351.34
2018-05-10T04:42:19.702Z,100343.90
2018-05-10T04:47:22.206Z,100355.91
2018-05-10T04:52:24.714Z,100357.23
2018-05-10T04:57:27.215Z,100353.50
2018-05-10T05:02:29.738Z,100349.93
2018-05-10T05:07:32.323Z,100350.70
2018-05-10T05:12:34.853Z,100354.41
2018-05-10T05:17:37.360Z,100362.39
2018-05-10T05:22:39.840Z,100365.17
2018-05-10T05:27:42.349Z,100369.75
2018-05-10T05:32:44.855Z,100374.16
2018-05-10T05:37:47.467Z,100378.48
2018-05-10T05:42:49.923Z,100385.87
2018-05-10T05:47:52.454Z,100389.84
2018-05-10T05:52:54.941Z,100394.20
2018-05-10T05:57:57.428Z,100394.40
2018-05-10T06:03:00.018Z,100395.67
2018-05-10T06:08:02.694Z,100397.27
2018-05-10T06:13:05.207Z,100388.97
2018-05-10T06:18:07.708Z,100390.55
2018-05-10T06:23:10.220Z,100382.30
2018-05-10T06:28:12.702Z,100401.34
2018-05-10T06:33:15.167Z,100413.20
2018-05-10T06:38:17.665Z,100419.64
2018-05-10T06:43:20.389Z,100421.77
2018-05-10T06:48:22.885Z,100420.24
2018-05-10T06:53:25.344Z,100415.38
2018-05-10T06:58:28.780Z,100413.49
2018-05-10T07:03:31.355Z,100421.13
2018-05-10T07:08:33.962Z,100434.03
2018-05-10T07:13:36.617Z,100424.20
2018-05-10T07:18:39.101Z,100421.86
2018-05-10T07:23:41.618Z,100423.52
2018-05-10T07:28:44.133Z,100410.87
2018-05-10T07:33:46.616Z,100421.98
2018-05-10T07:38:50.523Z,100416.94
2018-05-10T07:43:53.016Z,100410.34
2018-05-10T07:48:55.496Z,100406.31
2018-05-10T07:53:57.972Z,100415.02
2018-05-10T07:59:00.585Z,100407.99
2018-05-10T08:06:53.442Z,100416.68
2018-05-10T08:14:18.626Z,100406.02
2018-05-10T08:19:21.735Z,100407.20
2018-05-10T08:24:24.272Z,100402.19
2018-05-10T08:29:31.016Z,100410.09
2018-05-10T08:34:33.532Z,100411.49
2018-05-10T08:39:36.040Z,100405.21
2018-05-10T08:44:38.524Z,100403.80
2018-05-10T08:49:40.991Z,100407.02
2018-05-10T08:54:43.467Z,100408.09
2018-05-10T08:59:45.974Z,100404.74
2018-05-10T09:04:48.469Z,100407.45
2018-05-10T09:09:50.963Z,100404.01
2018-05-10T09:14:53.481Z,100400.19
2018-05-10T09:19:55.986Z,100409.33
2018-05-10T09:24:59.448Z,100407.02
2018-05-10T09:30:01.939Z,100397.83
2018-05-10T09:35:04.441Z,100398.52
2018-05-10T09:40:07.085Z,100403.64
2018-05-10T09:45:09.549Z,100398.41
2018-05-10T09:50:12.128Z,100400.00
2018-05-10T09:55:14.606Z,100412.16
2018-05-10T10:00:31.575Z,100411.19
2018-05-10T10:05:34.066Z,100403.05
2018-05-10T10:10:36.568Z,100411.94
2018-05-10T10:15:39.110Z,100416.64
2018-05-10T10:20:41.546Z,100422.39
2018-05-10T10:25:44.015Z,100411.50
2018-05-10T10:30:46.512Z,100402.78
2018-05-10T10:35:49.013Z,100407.27
2018-05-10T10:40:51.515Z,100403.64
2018-05-10T10:45:53.981Z,100400.84
2018-05-10T10:50:56.440Z,100406.33
2018-05-10T10:55:58.922Z,100411.13
2018-05-10T11:01:01.410Z,100421.70
2018-05-10T11:06:03.917Z,100415.25
2018-05-10T11:11:06.418Z,100420.05
2018-05-10T11:16:08.914Z,100413.63
2018-05-10T11:21:11.413Z,100407.63
2018-05-10T11:26:14.870Z,100408.17
2018-05-10T11:31:18.312Z,100404.25
2018-05-10T11:36:20.804Z,100400.18
2018-05-10T11:41:23.317Z,100393.80
2018-05-10T11:46:25.836Z,100401.44
2018-05-10T11:51:28.425Z,100395.20
2018-05-10T11:56:30.957Z,100398.68
2018-05-10T12:01:33.480Z,100399.63
2018-05-10T12:06:35.972Z,100383.11
2018-05-10T12:11:38.546Z,100399.80
2018-05-10T12:16:41.013Z,100402.00
2018-05-10T12:21:43.502Z,100397.70
2018-05-10T12:26:46.013Z,100399.52
2018-05-10T12:31:48.542Z,100385.98
2018-05-10T12:36:51.057Z,100390.20
2018-05-10T12:41:53.592Z,100376.48
2018-05-10T12:46:56.085Z,100375.33
2018-05-10T12:51:58.615Z,100382.56
2018-05-10T12:57:01.126Z,100385.17
2018-05-10T13:02:03.601Z,100373.37
2018-05-10T13:07:06.075Z,100374.83
2018-05-10T13:12:08.548Z,100375.60
2018-05-10T13:17:11.093Z,100371.53
2018-05-10T13:22:13.589Z,100354.04
2018-05-10T13:27:16.127Z,100357.99
2018-05-10T13:32:18.586Z,100363.31
2018-05-10T13:37:21.092Z,100365.12
2018-05-10T13:42:23.699Z,100366.88
2018-05-10T13:47:26.299Z,100379.24
2018-05-10T13:52:28.671Z,100377.84
2018-05-10T13:57:31.191Z,100389.50
2018-05-10T14:02:33.680Z,100396.48
2018-05-10T14:07:36.145Z,100388.34
2018-05-10T14:12:38.611Z,100390.17
2018-05-10T14:17:41.185Z,100389.58
2018-05-10T14:22:43.748Z,100373.11
2018-05-10T14:27:46.228Z,100388.55
2018-05-10T14:32:48.780Z,100394.41
2018-05-10T14:37:51.286Z,100399.70
2018-05-10T14:42:53.767Z,100403.73
2018-05-10T14:47:56.250Z,100406.39
2018-05-10T14:52:58.804Z,100421.68
2018-05-10T14:58:01.314Z,100438.33
2018-05-10T15:03:03.787Z,100428.78
2018-05-10T15:08:06.278Z,100429.07
2018-05-10T15:13:08.812Z,100437.89
2018-05-10T15:18:11.288Z,100437.08
2018-05-10T15:23:14.370Z,100422.12
2018-05-10T15:28:17.158Z,100426.61
2018-05-10T15:33:19.660Z,100432.56
2018-05-10T15:38:22.133Z,100439.77
2018-05-10T15:43:24.668Z,100450.84
2018-05-10T15:48:27.185Z,100448.47
2018-05-10T15:53:29.693Z,100460.96
2018-05-10T15:58:32.191Z,100475.11
2018-05-10T16:03:34.736Z,100483.89
2018-05-10T16:08:37.312Z,100497.95
2018-05-10T16:13:39.893Z,100500.77
2018-05-10T16:18:42.445Z,100502.16
2018-05-10T16:23:45.058Z,100535.34
2018-05-10T16:28:55.308Z,100538.35
2018-05-10T16:33:58.326Z,100536.52
2018-05-10T16:39:00.860Z,100530.83
2018-05-10T16:44:03.568Z,100527.62
2018-05-10T16:49:06.077Z,100517.66
2018-05-10T16:54:08.543Z,100531.29
2018-05-10T16:59:11.034Z,100523.30
2018-05-10T17:04:13.519Z,100529.20
2018-05-10T17:09:16.011Z,100535.91
2018-05-10T17:19:48.047Z,100543.53
2018-05-10T17:25:01.782Z,100541.63
2018-05-10T17:30:06.288Z,100551.72
2018-05-10T17:35:09.939Z,100558.71
2018-05-10T17:40:15.602Z,100559.46
2018-05-10T17:45:18.911Z,100587.19
2018-05-10T17:50:21.986Z,100643.30
2018-05-10T17:55:25.093Z,100673.41
2018-05-10T18:00:28.520Z,100696.14
2018-05-10T18:05:51.328Z,100721.52
2018-05-10T18:10:56.873Z,100748.02
2018-05-10T18:15:59.444Z,100772.38
2018-05-10T18:21:01.970Z,100790.98
2018-05-10T18:26:04.503Z,100807.19
2018-05-10T18:31:07.108Z,100842.29
2018-05-10T18:36:10.589Z,100849.23
2018-05-10T18:41:13.101Z,100855.00
2018-05-10T18:46:15.586Z,100868.47
2018-05-10T18:51:18.211Z,100880.09
2018-05-10T18:56:21.303Z,100885.33
2018-05-10T19:01:23.780Z,100883.20
2018-05-10T19:06:28.204Z,100888.17
2018-05-10T19:11:33.068Z,100895.99
2018-05-10T19:16:37.020Z,100901.69
2018-05-10T19:21:40.821Z,100915.11
2018-05-10T19:26:55.132Z,100909.70
2018-05-10T19:31:57.948Z,100916.89
2018-05-10T19:37:00.685Z,100920.72
2018-05-10T19:42:03.506Z,100927.91
2018-05-10T19:47:06.261Z,100938.19
2018-05-10T19:52:09.061Z,100945.74
2018-05-10T19:57:11.585Z,100947.38
2018-05-10T20:02:14.087Z,100960.41
2018-05-10T20:07:16.576Z,100962.91
2018-05-10T20:12:19.122Z,100971.16
2018-05-10T20:17:21.527Z,100978.46
2018-05-10T20:22:24.008Z,100981.72
2018-05-10T20:27:30.743Z,100996.52
2018-05-10T20:32:34.261Z,101000.70
2018-05-10T20:37:38.161Z,101002.80
2018-05-10T20:42:41.035Z,101011.43
2018-05-10T20:47:43.530Z,101031.84
2018-05-10T20:52:46.771Z,101031.84
2018-05-10T20:57:49.256Z,101040.88
2018-05-10T21:02:51.750Z,101056.86
2018-05-10T21:07:54.338Z,101059.20
2018-05-10T21:12:56.852Z,101060.78
2018-05-10T21:17:59.372Z,101057.73
2018-05-10T21:23:02.648Z,101065.59
2018-05-10T21:28:05.247Z,101075.45
2018-05-10T21:33:07.742Z,101081.89
2018-05-10T21:38:10.227Z,101091.41
2018-05-10T21:43:12.697Z,101082.88
2018-05-10T21:48:15.164Z,101086.19
2018-05-10T21:53:17.662Z,101090.10
2018-05-10T21:58:20.195Z,101111.04
2018-05-10T22:03:22.774Z,101111.78
2018-05-10T22:08:25.253Z,101110.72
2018-05-10T22:13:27.768Z,101118.03
2018-05-10T22:18:30.257Z,101120.97
2018-05-10T22:23:32.791Z,101124.28
2018-05-10T22:28:35.396Z,101123.81
2018-05-10T22:33:37.882Z,101118.26
2018-05-10T22:38:40.410Z,101112.42
2018-05-10T22:43:42.961Z,101102.14
2018-05-10T22:48:45.444Z,101095.66
2018-05-10T22:53:47.937Z,101103.48
2018-05-10T22:58:50.400Z,101114.25
2018-05-10T23:03:52.875Z,101117.03
2018-05-10T23:08:55.447Z,101120.17
2018-05-10T23:13:57.927Z,101136.90
2018-05-10T23:19:00.399Z,101132.56
2018-05-10T23:24:02.958Z,101142.81
2018-05-10T23:29:05.456Z,101144.50
2018-05-10T23:34:07.953Z,101158.35
2018-05-10T23:39:10.459Z,101155.30
2018-05-10T23:44:12.956Z,101177.73
2018-05-10T23:49:15.581Z,101195.83
2018-05-10T23:54:18.054Z,101196.92
2018-05-10T23:59:20.546Z,101202.73
